Bookmark and Share
Track history (hours):
 

Ferry Katsuragi

Last reported at 2014-Apr-16 11:33 UTC. Time now 2014-Apr-16 13:50 UTC.
Position N 34°07' E 134°47'.

Length 108 m; draft 4 m.

Type: Passenger vessel. MMSI: 431301245.

NotesDate/timePositionNaut miles runAvg speedWind from/ knotsBaromVisibWave heightAir tempDewpointWater temp
2014-Apr-16 11:33N 34°07' E 134°47'1414.1
2014-Apr-16 10:33N 34°12' E 135°03'5 4.8
2014-Apr-16 09:33N 34°13' E 135°08'10 2.4
2014-Apr-16 05:26N 34°09' E 134°57'1011.6
2014-Apr-16 04:33N 34°13' E 135°09'9 2.1
2014-Apr-16 00:09N 34°10' E 134°58'915.0
2014-Apr-15 23:34N 34°13' E 135°08'2 1.8
2014-Apr-15 22:33N 34°13' E 135°06'18 5.2
2014-Apr-15 19:06N 34°06' E 134°46'914.4
2014-Apr-15 18:29N 34°09' E 134°56'1112.0
2014-Apr-15 17:33N 34°13' E 135°09'0 0.0
2014-Apr-15 16:33N 34°13' E 135°09'0 0.0
2014-Apr-15 15:33N 34°13' E 135°09'6 5.6
2014-Apr-15 14:33N 34°12' E 135°02'1 0.2
2014-Apr-15 09:34N 34°12' E 135°03'5 4.8
2014-Apr-15 08:34N 34°13' E 135°08'0 0.0
2014-Apr-15 03:34N 34°13' E 135°09'0 0.0
2014-Apr-14 22:34N 34°13' E 135°09'2 1.6
2014-Apr-14 21:34N 34°13' E 135°07'10 2.4
2014-Apr-14 17:29N 34°09' E 134°56'1112.4
2014-Apr-14 16:34N 34°13' E 135°09'0 0.0
2014-Apr-14 15:34N 34°13' E 135°09'0 0.0
2014-Apr-14 14:34N 34°13' E 135°09'5 5.0
2014-Apr-14 13:34N 34°11' E 135°03'0 0.1
2014-Apr-14 09:33N 34°12' E 135°03'5 4.7
2014-Apr-14 08:33N 34°13' E 135°08'2 0.2
2014-Apr-13 22:33N 34°13' E 135°06'20 6.3
2014-Apr-13 19:18N 34°05' E 134°43'1114.1
2014-Apr-13 18:33N 34°08' E 134°55'1212.0
2014-Apr-13 17:34N 34°13' E 135°09'0 0.0
2014-Apr-13 16:33N 34°13' E 135°09'0 0.0
2014-Apr-13 15:33N 34°13' E 135°09'6 6.3
2014-Apr-13 14:32N 34°11' E 135°01'12 4.1
2014-Apr-13 11:31N 34°06' E 134°47'1414.5
2014-Apr-13 10:33N 34°12' E 135°03'5 4.8
2014-Apr-13 09:33N 34°13' E 135°08'21 6.1
2014-Apr-13 06:12N 34°06' E 134°45'1014.2
2014-Apr-13 05:31N 34°09' E 134°56'1111.6
2014-Apr-13 04:34N 34°13' E 135°09'6 6.4
2014-Apr-13 03:33N 34°11' E 135°01'7 2.1
2014-Apr-13 00:23N 34°09' E 134°54'1214.9
2014-Apr-12 23:34N 34°13' E 135°08'2 1.7
2014-Apr-12 22:33N 34°13' E 135°06'10 2.5
2014-Apr-12 18:33N 34°08' E 134°55'1212.0
2014-Apr-12 17:33N 34°13' E 135°09'0 0.0
2014-Apr-12 16:33N 34°13' E 135°09'0 0.0
2014-Apr-12 15:33N 34°13' E 135°09'5 5.1
2014-Apr-12 14:33N 34°11' E 135°03'14 4.8
2014-Apr-12 11:33N 34°06' E 134°46'1414.6
2014-Apr-12 10:33N 34°11' E 135°03'5 4.9
2014-Apr-12 09:33N 34°13' E 135°08'21 6.0
2014-Apr-12 06:07N 34°06' E 134°45'1315.1
2014-Apr-12 05:16N 34°10' E 134°60'811.1
2014-Apr-12 04:34N 34°13' E 135°09'13 3.0
2014-Apr-12 00:22N 34°09' E 134°54'1214.9
2014-Apr-11 23:33N 34°13' E 135°08'3 3.1
2014-Apr-11 22:33N 34°13' E 135°04'17 5.0
2014-Apr-11 19:09N 34°06' E 134°45'1014.3
2014-Apr-11 18:28N 34°09' E 134°56'1112.0
2014-Apr-11 17:33N 34°13' E 135°09'0 0.0
2014-Apr-11 16:33N 34°13' E 135°09'0 0.0
2014-Apr-11 15:33N 34°13' E 135°09'7 6.7
2014-Apr-11 14:28N 34°11' E 135°00'12 4.0
2014-Apr-11 11:32N 34°07' E 134°47'1414.4
2014-Apr-11 10:32N 34°11' E 135°03'5 4.6
2014-Apr-11 09:34N 34°13' E 135°08'12 2.9
2014-Apr-11 05:33N 34°08' E 134°56'1212.0
2014-Apr-11 04:34N 34°13' E 135°09'11 2.7
2014-Apr-11 00:20N 34°09' E 134°56'1114.3
2014-Apr-10 23:34N 34°13' E 135°08'3 2.7
2014-Apr-10 22:34N 34°13' E 135°05'18 5.3
2014-Apr-10 19:08N 34°06' E 134°45'914.4
2014-Apr-10 18:32N 34°09' E 134°55'1212.3
2014-Apr-10 17:34N 34°13' E 135°09'0 0.0
2014-Apr-10 16:34N 34°13' E 135°09'0 0.0
2014-Apr-10 15:33N 34°13' E 135°09'18 4.4
2014-Apr-10 11:27N 34°07' E 134°48'1314.4
2014-Apr-10 10:32N 34°11' E 135°03'5 4.9
2014-Apr-10 09:33N 34°13' E 135°08'9 2.2
2014-Apr-10 05:23N 34°10' E 134°58'911.2
2014-Apr-10 04:33N 34°13' E 135°09'7 6.8
2014-Apr-10 03:32N 34°11' E 135°01'4 1.3
2014-Apr-10 00:17N 34°09' E 134°56'1114.9
2014-Apr-09 23:34N 34°13' E 135°08'2 1.8
2014-Apr-09 22:33N 34°13' E 135°06'18 5.3
2014-Apr-09 19:08N 34°06' E 134°46'914.0
2014-Apr-09 18:28N 34°09' E 134°56'1112.0
2014-Apr-09 17:33N 34°13' E 135°09'0 0.0
2014-Apr-09 16:33N 34°13' E 135°09'0 0.0
2014-Apr-09 15:33N 34°13' E 135°09'6 6.2
2014-Apr-09 14:32N 34°12' E 135°01'2 0.4
2014-Apr-09 10:33N 34°12' E 135°03'5 4.8
2014-Apr-09 09:33N 34°13' E 135°08'20 5.8
2014-Apr-09 06:07N 34°06' E 134°46'914.2
2014-Apr-09 05:31N 34°08' E 134°56'1212.1
2014-Apr-09 04:33N 34°13' E 135°09'7 6.5
2014-Apr-09 03:33N 34°11' E 135°01'19 8.1
2014-Apr-09 01:12N 34°04' E 134°40'1015.5
2014-Apr-09 00:32N 34°07' E 134°52'1515.1
2014-Apr-08 23:33N 34°13' E 135°08'2 1.6
2014-Apr-08 22:33N 34°13' E 135°06'18 5.3
2014-Apr-08 19:05N 34°06' E 134°45'914.7
2014-Apr-08 18:28N 34°09' E 134°56'1112.4
2014-Apr-08 17:34N 34°13' E 135°09'0 0.0
2014-Apr-08 16:34N 34°13' E 135°09'0 0.0
2014-Apr-08 15:34N 34°13' E 135°09'6 5.6
2014-Apr-08 14:32N 34°12' E 135°02'13 4.2
2014-Apr-08 11:27N 34°06' E 134°48'1314.9
2014-Apr-08 10:33N 34°11' E 135°03'5 5.0
2014-Apr-08 09:33N 34°13' E 135°08'20 5.6
2014-Apr-08 06:03N 34°06' E 134°46'1415.1
2014-Apr-08 05:09N 34°11' E 135°02'610.3
2014-Apr-08 04:33N 34°13' E 135°09'6 6.4
2014-Apr-08 03:34N 34°11' E 135°01'6 1.9
2014-Apr-08 00:21N 34°08' E 134°55'1215.1
2014-Apr-07 23:33N 34°13' E 135°08'2 2.1
2014-Apr-07 22:33N 34°13' E 135°06'2 0.5
2014-Apr-07 17:33N 34°13' E 135°09'0 0.0
2014-Apr-07 16:33N 34°13' E 135°09'0 0.0
2014-Apr-07 15:33N 34°13' E 135°09'7 6.7
2014-Apr-07 14:33N 34°11' E 135°01'12 4.0
2014-Apr-07 11:30N 34°06' E 134°47'1414.6
2014-Apr-07 10:33N 34°11' E 135°03'5 5.0
2014-Apr-07 09:34N 34°13' E 135°08'20 5.7
2014-Apr-07 06:05N 34°06' E 134°46'914.5
2014-Apr-07 05:26N 34°10' E 134°57'1011.9
2014-Apr-07 04:33N 34°13' E 135°09'10 8.3
2014-Apr-07 03:23N 34°10' E 134°57'1 0.3
2014-Apr-07 00:14N 34°10' E 134°56'1015.1
2014-Apr-06 23:34N 34°13' E 135°08'2 2.4
2014-Apr-06 22:33N 34°13' E 135°05'1814.8
2014-Apr-06 21:21N 34°05' E 134°45'2 1.1
2014-Apr-06 19:19N 34°04' E 134°43'1214.1
2014-Apr-06 18:30N 34°09' E 134°56'1112.1
2014-Apr-06 17:33N 34°13' E 135°09'0 0.0
2014-Apr-06 16:33N 34°13' E 135°09'0 0.0
2014-Apr-06 15:33N 34°13' E 135°09'7 6.9
2014-Apr-06 14:31N 34°11' E 135°00'  

Dump ship's entire track history

sailing weather and tide predictions

Ferry Katsuragi — JI3611 — position and weather